Time;durP1;ratioP1;P1;durP2;ratioP2;P2;SDS_P1;SDS_P2;PMS_P1;PMS_P2;Temp;Humidity;BMP_temperature;BMP_pressure;BME280_temperature;BME280_humidity;BME280_pressure;Samples;Min_cycle;Max_cycle;Signal;HPM_P1;HPM_P2
2021/04/26 00:00:07;;;;;;;10.38;7.65;;;;;;;0.83;89.99;93004.81;1820312;78;21056;-79
2021/04/26 00:02:38;;;;;;;13.48;7.75;;;;;;;0.89;89.84;93002.11;1787249;80;21104;-78
2021/04/26 00:05:07;;;;;;;14.65;10.58;;;;;;;0.93;89.66;93006.42;1820185;78;22236;-78
2021/04/26 00:07:35;;;;;;;40.38;27.07;;;;;;;0.96;89.43;93008.42;1788007;80;21064;-78
2021/04/26 00:10:07;;;;;;;44.05;27.42;;;;;;;0.91;89.21;93006.58;1875082;76;21056;-79
2021/04/26 00:12:37;;;;;;;50.58;28.35;;;;;;;0.85;89.25;93009.27;1847724;76;21039;-79
2021/04/26 00:15:12;;;;;;;61.95;34.10;;;;;;;0.78;89.30;93010.42;1813252;77;21519;-79
2021/04/26 00:17:39;;;;;;;54.35;30.68;;;;;;;0.70;89.48;93001.44;1837181;75;21275;-78
2021/04/26 00:20:09;;;;;;;46.70;28.45;;;;;;;0.66;89.74;92999.23;1901154;75;21550;-78
2021/04/26 00:22:36;;;;;;;53.15;31.82;;;;;;;0.63;89.99;92998.01;1789375;80;21483;-78
2021/04/26 00:25:06;;;;;;;56.83;33.40;;;;;;;0.62;89.89;92997.80;1821906;78;21044;-80
2021/04/26 00:27:35;;;;;;;61.05;36.15;;;;;;;0.60;89.89;92996.05;1851194;76;21471;-79
2021/04/26 00:30:07;;;;;;;61.42;35.30;;;;;;;0.60;90.13;92992.03;1888700;75;21088;-79
2021/04/26 00:32:37;;;;;;;44.38;29.80;;;;;;;0.66;90.32;92999.23;1824129;78;21246;-78
2021/04/26 00:35:08;;;;;;;32.23;21.48;;;;;;;0.72;90.20;93004.00;1786318;80;21064;-78
2021/04/26 00:37:38;;;;;;;37.80;23.90;;;;;;;0.76;89.95;93001.98;1865440;76;21147;-78
2021/04/26 00:40:10;;;;;;;36.15;23.35;;;;;;;0.75;89.89;93002.52;1892537;75;21593;-77
2021/04/26 00:42:37;;;;;;;30.62;18.25;;;;;;;0.76;90.02;92998.73;1850410;75;22263;-77
2021/04/26 00:45:12;;;;;;;18.17;12.47;;;;;;;0.76;89.75;93000.64;1888609;75;21095;-77
2021/04/26 00:47:43;;;;;;;23.05;14.05;;;;;;;0.67;89.34;92995.43;1824378;78;21682;-78
2021/04/26 00:50:15;;;;;;;14.05;9.25;;;;;;;0.64;89.38;93000.12;1786344;79;21120;-77
2021/04/26 00:52:47;;;;;;;11.60;8.33;;;;;;;0.67;89.15;92993.53;1788042;80;21158;-79
2021/04/26 00:55:15;;;;;;;13.70;7.97;;;;;;;0.64;88.52;92981.39;1820404;78;22313;-78
2021/04/26 00:57:42;;;;;;;11.93;6.40;;;;;;;0.63;88.42;92989.20;1787991;80;21091;-79
2021/04/26 01:00:11;;;;;;;14.68;9.38;;;;;;;0.60;87.90;92984.00;1820061;78;21558;-77
2021/04/26 01:02:40;;;;;;;14.53;8.50;;;;;;;0.60;87.99;92984.00;1787890;80;21139;-78
2021/04/26 01:05:11;;;;;;;8.63;6.80;;;;;;;0.60;88.06;92988.02;1820272;78;21602;-76
2021/04/26 01:07:41;;;;;;;9.73;6.37;;;;;;;0.60;87.97;92988.55;1860839;76;22221;-76
2021/04/26 01:10:12;;;;;;;10.30;5.90;;;;;;;0.60;87.58;92990.69;1843490;76;21534;-78
2021/04/26 01:13:09;;;;;;;12.13;7.60;;;;;;;0.59;86.89;92990.45;1806952;79;21116;-76
2021/04/26 01:16:15;;;;;;;10.00;6.62;;;;;;;0.56;86.75;92995.14;1865077;75;21087;-76
2021/04/26 01:19:23;;;;;;;9.48;6.10;;;;;;;0.52;86.25;92995.61;1894938;75;21028;-78
2021/04/26 01:22:22;;;;;;;6.55;5.35;;;;;;;0.50;86.12;92998.43;1895698;75;21498;-80
2021/04/26 01:25:05;;;;;;;8.83;5.45;;;;;;;0.44;86.21;92997.32;1856766;75;21136;-76
2021/04/26 01:28:23;;;;;;;8.90;5.80;;;;;;;0.39;86.44;92992.79;1820209;78;21044;-78
2021/04/26 01:31:10;;;;;;;7.92;5.75;;;;;;;0.37;86.52;92997.69;1788082;80;21092;-76
2021/04/26 01:33:55;;;;;;;7.92;5.28;;;;;;;0.33;86.36;93003.50;1820276;78;21124;-77
2021/04/26 01:36:27;;;;;;;7.62;5.67;;;;;;;0.34;86.42;93002.38;1784287;79;21378;-78
2021/04/26 01:38:57;;;;;;;8.53;6.33;;;;;;;0.37;86.31;93001.70;1820172;78;21096;-77
2021/04/26 01:41:26;;;;;;;8.50;5.75;;;;;;;0.35;86.11;93001.28;1787965;80;21495;-78
2021/04/26 01:43:54;;;;;;;9.18;5.62;;;;;;;0.35;86.07;92991.36;1820069;78;21048;-77
2021/04/26 01:46:24;;;;;;;7.08;5.58;;;;;;;0.36;85.69;92992.12;1787447;80;21222;-76
2021/04/26 01:48:52;;;;;;;7.62;5.78;;;;;;;0.34;85.58;92988.47;1820151;78;21353;-77
2021/04/26 01:51:21;;;;;;;6.50;5.12;;;;;;;0.34;85.71;92987.13;1787850;80;21565;-77
2021/04/26 01:53:48;;;;;;;6.45;5.65;;;;;;;0.35;85.68;92991.92;1820013;78;21116;-77
2021/04/26 01:56:17;;;;;;;7.70;6.67;;;;;;;0.35;85.71;92997.27;1738232;80;21092;-76
2021/04/26 01:58:50;;;;;;;8.90;5.95;;;;;;;0.35;85.79;92983.33;1820191;78;21115;-77
2021/04/26 02:01:22;;;;;;;8.60;5.70;;;;;;;0.36;85.77;92988.89;1787918;80;21566;-75
2021/04/26 02:03:59;;;;;;;7.67;5.58;;;;;;;0.38;85.90;92990.68;1819054;78;21203;-76
2021/04/26 02:06:41;;;;;;;6.53;5.50;;;;;;;0.40;85.89;92990.33;1785487;79;21558;-75
2021/04/26 02:09:15;;;;;;;7.30;5.67;;;;;;;0.41;86.10;92982.52;1797017;78;21088;-76
2021/04/26 02:11:45;;;;;;;8.63;6.42;;;;;;;0.41;86.15;92974.48;1787913;80;21131;-76
2021/04/26 02:14:20;;;;;;;6.80;5.12;;;;;;;0.42;86.31;92982.19;1820188;78;22681;-76
2021/04/26 02:16:49;;;;;;;8.60;6.20;;;;;;;0.43;86.23;92981.06;1787754;80;21138;-77
2021/04/26 02:19:17;;;;;;;7.72;6.55;;;;;;;0.45;86.24;92981.52;1795051;78;21049;-76
2021/04/26 02:21:47;;;;;;;6.80;5.47;;;;;;;0.46;86.51;92982.28;1787633;80;21175;-75
2021/04/26 02:24:20;;;;;;;8.60;5.83;;;;;;;0.43;86.39;92974.37;1820214;78;21226;-76
2021/04/26 02:26:49;;;;;;;8.25;5.85;;;;;;;0.44;86.45;92972.47;1787766;80;21349;-76
2021/04/26 02:29:32;;;;;;;6.30;5.45;;;;;;;0.44;86.31;92971.91;1869902;76;21041;-77
2021/04/26 02:32:08;;;;;;;7.33;5.62;;;;;;;0.44;86.10;92969.80;1847668;77;21034;-75
2021/04/26 02:34:45;;;;;;;6.85;5.53;;;;;;;0.45;86.32;92974.83;1833576;77;21035;-76
2021/04/26 02:37:32;;;;;;;5.25;4.75;;;;;;;0.44;86.01;92974.58;1839508;76;21037;-76
2021/04/26 02:40:11;;;;;;;6.85;5.17;;;;;;;0.43;85.90;92973.03;1870323;76;21353;-76
2021/04/26 02:42:47;;;;;;;7.15;4.80;;;;;;;0.39;85.81;92975.41;1844718;76;21109;-78
2021/04/26 02:45:18;;;;;;;6.85;4.58;;;;;;;0.36;85.31;92979.53;1792477;77;21849;-77
2021/04/26 02:47:47;;;;;;;5.40;4.60;;;;;;;0.32;84.58;92977.88;1861680;77;21133;-76
2021/04/26 02:50:23;;;;;;;6.35;4.35;;;;;;;0.25;84.31;92983.81;1869524;76;21117;-76
2021/04/26 02:52:53;;;;;;;5.30;4.47;;;;;;;0.17;84.11;92986.08;1862123;76;21885;-78
2021/04/26 02:55:25;;;;;;;8.80;4.47;;;;;;;0.12;84.37;92984.99;1877937;74;21491;-77
2021/04/26 02:57:55;;;;;;;5.58;4.65;;;;;;;0.07;84.36;92989.99;1842833;77;21031;-75
2021/04/26 03:00:26;;;;;;;6.67;4.60;;;;;;;0.06;84.78;92989.02;1842993;77;21209;-75
2021/04/26 03:03:11;;;;;;;5.47;4.80;;;;;;;0.03;84.60;92990.45;1780497;77;21102;-77
2021/04/26 03:05:39;;;;;;;6.80;4.25;;;;;;;0.03;85.27;92992.36;1842911;77;21189;-76
2021/04/26 03:08:06;;;;;;;4.83;3.92;;;;;;;0.05;84.94;92994.14;1842702;77;21141;-79
2021/04/26 03:10:33;;;;;;;8.20;4.20;;;;;;;0.03;84.64;92994.47;1819874;77;21062;-77
2021/04/26 03:13:02;;;;;;;6.72;4.92;;;;;;;0.04;84.46;92992.56;1842959;77;21030;-75
2021/04/26 03:15:30;;;;;;;6.35;4.85;;;;;;;0.03;83.88;92990.45;1819657;77;21204;-76
2021/04/26 03:18:00;;;;;;;7.37;5.10;;;;;;;0.04;84.64;92997.37;1842981;77;21224;-76
2021/04/26 03:20:29;;;;;;;6.10;4.40;;;;;;;0.04;84.69;92997.37;1842839;77;21086;-76
2021/04/26 03:23:01;;;;;;;5.90;4.15;;;;;;;0.05;84.20;92998.16;1842224;77;21124;-75
2021/04/26 03:25:29;;;;;;;7.10;5.08;;;;;;;0.02;84.44;92994.25;1843071;77;21101;-76
2021/04/26 03:27:58;;;;;;;6.05;4.50;;;;;;;0.01;84.75;92998.05;1842991;77;21122;-79
2021/04/26 03:30:28;;;;;;;6.55;4.70;;;;;;;-0.04;83.23;92996.94;1842796;77;21569;-76
2021/04/26 03:33:02;;;;;;;6.35;4.08;;;;;;;-0.11;83.75;93000.77;1842240;77;21066;-77
2021/04/26 03:35:31;;;;;;;8.13;4.70;;;;;;;-0.16;84.04;92996.41;1843138;77;21057;-76
2021/04/26 03:37:59;;;;;;;5.97;4.65;;;;;;;-0.17;83.79;93006.11;1842859;77;21114;-78
2021/04/26 03:40:27;;;;;;;6.65;4.90;;;;;;;-0.18;83.19;93005.90;1843078;77;21102;-76
2021/04/26 03:42:58;;;;;;;6.55;4.55;;;;;;;-0.20;83.15;93001.44;1842841;77;21359;-78
2021/04/26 03:45:29;;;;;;;6.58;4.83;;;;;;;-0.22;83.27;93007.70;1842177;77;21157;-76
2021/04/26 03:48:16;;;;;;;6.45;4.22;;;;;;;-0.22;83.61;93002.34;1839699;77;21106;-76
2021/04/26 03:50:50;;;;;;;6.70;4.40;;;;;;;-0.22;83.15;93003.69;1909700;75;21089;-77
2021/04/26 03:53:20;;;;;;;6.53;5.05;;;;;;;-0.22;82.84;93011.70;1858893;75;21038;-75
2021/04/26 03:55:56;;;;;;;7.35;4.87;;;;;;;-0.23;83.83;93021.59;1887125;75;21502;-76
2021/04/26 03:58:24;;;;;;;6.15;4.42;;;;;;;-0.22;83.88;93022.39;1894637;75;21039;-77
2021/04/26 04:00:52;;;;;;;6.00;4.47;;;;;;;-0.20;84.38;93013.47;1869188;76;21085;-76
2021/04/26 04:03:21;;;;;;;4.87;4.35;;;;;;;-0.18;84.59;93014.69;1852490;77;21033;-76
2021/04/26 04:05:49;;;;;;;5.55;4.75;;;;;;;-0.16;84.63;93025.81;1816225;78;21173;-77
2021/04/26 04:08:38;;;;;;;7.08;4.92;;;;;;;-0.14;84.95;93018.25;1840367;78;21355;-79
2021/04/26 04:11:08;;;;;;;4.92;4.12;;;;;;;-0.09;85.29;93023.91;1839362;78;21166;-78
2021/04/26 04:13:56;;;;;;;9.58;4.80;;;;;;;-0.07;85.64;93025.14;1835288;77;21157;-76
2021/04/26 04:16:24;;;;;;;5.70;4.72;;;;;;;-0.04;85.89;93027.67;1839613;77;21481;-77
2021/04/26 04:18:52;;;;;;;7.72;5.15;;;;;;;-0.03;85.99;93027.35;1840415;78;21621;-77
2021/04/26 04:21:21;;;;;;;6.97;5.45;;;;;;;0.00;86.12;93024.58;1840618;77;22448;-78
2021/04/26 04:23:50;;;;;;;10.08;6.08;;;;;;;0.02;86.04;93020.98;1840275;77;21114;-76
2021/04/26 04:26:19;;;;;;;11.28;6.08;;;;;;;0.06;86.12;93025.10;1840406;78;21125;-77
2021/04/26 04:28:48;;;;;;;7.33;5.15;;;;;;;0.08;86.28;93024.99;1840917;77;21160;-78
2021/04/26 04:31:17;;;;;;;8.25;5.53;;;;;;;0.11;86.21;93022.95;1836409;77;21090;-78
2021/04/26 04:33:52;;;;;;;;;;;;;;;0.14;86.20;93024.95;1796330;77;22063;-76
2021/04/26 04:36:29;;;;;;;13.72;10.55;;;;;;;0.17;86.21;93030.20;1776467;79;20225;-77
2021/04/26 04:39:02;;;;;;;13.58;9.35;;;;;;;0.20;86.33;93026.28;1802715;79;21071;-78
2021/04/26 04:41:43;;;;;;;11.50;7.90;;;;;;;0.25;86.29;93030.61;1826920;77;21058;-78
2021/04/26 04:44:10;;;;;;;10.85;8.53;;;;;;;0.31;86.32;93039.19;1842984;77;21062;-79
2021/04/26 04:46:39;;;;;;;11.43;8.15;;;;;;;0.32;86.30;93037.50;1843010;77;22309;-78
2021/04/26 04:49:13;;;;;;;11.57;7.70;;;;;;;0.37;86.21;93043.16;1841430;77;21501;-76
2021/04/26 04:51:43;;;;;;;10.82;7.30;;;;;;;0.38;85.87;93041.50;1842895;77;21478;-77
2021/04/26 04:54:13;;;;;;;9.18;6.60;;;;;;;0.39;85.91;93048.40;1843040;77;21027;-80
2021/04/26 04:56:42;;;;;;;9.38;6.60;;;;;;;0.40;85.85;93049.95;1841520;77;21038;-79
2021/04/26 04:59:13;;;;;;;10.35;6.50;;;;;;;0.41;85.95;93047.48;1842943;77;21649;-76
2021/04/26 05:01:42;;;;;;;9.65;5.78;;;;;;;0.46;86.08;93046.48;1842786;77;21050;-79
2021/04/26 05:04:28;;;;;;;11.43;6.20;;;;;;;0.56;86.26;93047.88;1843022;77;21115;-77
2021/04/26 05:07:09;;;;;;;10.58;7.37;;;;;;;0.66;86.04;93052.75;1760242;78;21213;-80
2021/04/26 05:09:55;;;;;;;10.70;8.15;;;;;;;0.68;85.70;93047.28;1836896;77;21145;-78
2021/04/26 05:12:43;;;;;;;8.43;6.70;;;;;;;0.71;85.51;93047.95;1837509;77;21039;-78
2021/04/26 05:15:15;;;;;;;9.93;7.00;;;;;;;0.77;85.35;93052.48;1904739;75;21050;-79
2021/04/26 05:17:42;;;;;;;7.92;6.03;;;;;;;0.85;85.17;93056.89;1861497;75;21050;-79
2021/04/26 05:20:11;;;;;;;8.40;5.03;;;;;;;0.89;84.93;93061.00;1883496;75;21093;-75
2021/04/26 05:22:39;;;;;;;10.50;6.12;;;;;;;0.92;84.62;93058.42;1897973;75;21138;-77
2021/04/26 05:25:10;;;;;;;10.28;7.17;;;;;;;0.95;84.44;93059.08;1877603;75;21389;-77
2021/04/26 05:27:40;;;;;;;10.32;6.78;;;;;;;1.00;84.51;93063.40;1911042;75;21046;-76
2021/04/26 05:30:09;;;;;;;9.15;5.80;;;;;;;1.06;83.88;93064.72;1875783;75;21082;-77
2021/04/26 05:32:37;;;;;;;10.80;7.30;;;;;;;1.10;83.61;93064.81;1873423;76;21552;-76
2021/04/26 05:35:08;;;;;;;9.78;7.42;;;;;;;1.11;83.27;93065.02;1872528;76;21126;-79
2021/04/26 05:37:37;;;;;;;14.70;9.15;;;;;;;1.10;83.29;93065.58;1873292;76;22346;-78
2021/04/26 05:40:06;;;;;;;11.33;7.65;;;;;;;1.15;83.18;93069.90;1875515;75;21055;-78
2021/04/26 05:42:34;;;;;;;10.88;6.60;;;;;;;1.24;83.16;93077.20;1910764;75;21033;-76
2021/04/26 05:45:02;;;;;;;12.65;7.50;;;;;;;1.31;83.06;93074.70;1878164;75;21105;-80
2021/04/26 05:47:38;;;;;;;13.80;9.60;;;;;;;1.39;82.84;93071.09;1873121;76;21557;-80
2021/04/26 05:50:06;;;;;;;12.37;8.13;;;;;;;1.53;82.88;93065.29;1890558;75;21153;-80
2021/04/26 05:52:33;;;;;;;13.83;8.90;;;;;;;1.70;82.26;93072.98;1902049;75;21101;-75
2021/04/26 05:55:00;;;;;;;12.23;8.45;;;;;;;1.93;82.26;93074.47;1872971;76;21110;-78
2021/04/26 05:57:28;;;;;;;15.75;11.93;;;;;;;2.18;81.37;93077.71;1873187;76;21549;-81
2021/04/26 05:59:56;;;;;;;11.68;9.13;;;;;;;2.32;80.30;93075.88;1901674;75;21153;-75
2021/04/26 06:02:24;;;;;;;9.60;7.03;;;;;;;2.41;79.40;93077.03;1889178;75;21921;-78
2021/04/26 06:04:51;;;;;;;11.53;6.45;;;;;;;2.59;78.35;93080.84;1873136;76;21488;-75
2021/04/26 06:07:18;;;;;;;6.47;5.22;;;;;;;2.87;77.15;93084.67;1876098;75;21117;-75
2021/04/26 06:09:46;;;;;;;8.10;4.95;;;;;;;2.98;75.48;93090.25;1910491;75;21164;-76
2021/04/26 06:12:14;;;;;;;8.15;5.30;;;;;;;2.92;74.81;93091.66;1858415;75;21132;-77
2021/04/26 06:14:42;;;;;;;7.53;5.75;;;;;;;2.86;74.97;93093.86;1842056;76;22317;-77
2021/04/26 06:17:09;;;;;;;6.42;5.05;;;;;;;2.82;74.05;93088.19;1866474;75;21153;-78
2021/04/26 06:19:38;;;;;;;7.33;5.37;;;;;;;2.74;73.92;93087.84;1902107;75;21087;-75
2021/04/26 06:22:05;;;;;;;5.70;4.80;;;;;;;2.71;74.56;93088.00;1871630;76;21394;-76
2021/04/26 06:24:34;;;;;;;12.63;5.40;;;;;;;2.83;74.65;93093.80;1871309;76;21682;-75
2021/04/26 06:27:01;;;;;;;7.45;5.05;;;;;;;2.99;73.22;93087.77;1871616;76;21643;-78
2021/04/26 06:29:29;;;;;;;7.03;5.10;;;;;;;3.08;72.09;93092.91;1871781;76;21208;-79
2021/04/26 06:31:56;;;;;;;7.10;5.28;;;;;;;3.08;71.92;93092.91;1872486;76;21086;-80
2021/04/26 06:34:24;;;;;;;14.93;8.30;;;;;;;3.10;71.64;93094.12;1875021;75;21137;-77
2021/04/26 06:36:51;;;;;;;12.80;7.08;;;;;;;3.27;73.23;93095.59;1910995;75;21002;-81
2021/04/26 06:39:18;;;;;;;13.72;7.65;;;;;;;3.60;73.52;93090.19;1879187;75;21165;-81
2021/04/26 06:41:46;;;;;;;7.75;5.25;;;;;;;3.99;72.74;93098.91;1896254;75;21145;-78
2021/04/26 06:44:13;;;;;;;6.87;5.05;;;;;;;4.37;70.86;93099.27;1888542;75;21548;-81
2021/04/26 06:46:41;;;;;;;7.40;4.78;;;;;;;4.64;69.06;93095.20;1849393;77;21224;-79
2021/04/26 06:49:09;;;;;;;6.30;4.22;;;;;;;4.83;68.14;93096.41;1837081;77;21122;-81
2021/04/26 06:51:36;;;;;;;6.10;4.42;;;;;;;5.15;67.43;93103.30;1815889;78;22058;-79
2021/04/26 06:54:05;;;;;;;5.17;3.85;;;;;;;5.28;65.94;93101.34;1851813;76;21063;-82
2021/04/26 06:56:34;;;;;;;8.78;4.85;;;;;;;5.32;64.50;93106.20;1843352;76;21039;-84
2021/04/26 06:59:01;;;;;;;9.28;4.70;;;;;;;5.29;64.29;93110.98;1859852;74;21188;-84
2021/04/26 07:01:28;;;;;;;5.37;4.72;;;;;;;5.20;62.92;93105.69;1905184;75;21172;-83
2021/04/26 07:03:56;;;;;;;4.75;4.05;;;;;;;5.18;63.04;93111.43;1872185;76;21169;-84
2021/04/26 07:06:23;;;;;;;5.80;3.52;;;;;;;5.32;64.29;93112.17;1872949;76;21490;-82
2021/04/26 07:08:52;;;;;;;5.90;3.90;;;;;;;5.64;62.97;93114.41;1894491;75;21137;-83
2021/04/26 07:11:20;;;;;;;6.50;3.62;;;;;;;5.86;59.94;93108.06;1894543;75;21205;-84
2021/04/26 07:13:47;;;;;;;4.67;3.17;;;;;;;6.03;58.78;93108.83;1876993;75;21121;-79
2021/04/26 07:16:15;;;;;;;4.58;3.58;;;;;;;6.18;60.37;93106.24;1908718;75;21646;-79
2021/04/26 07:18:44;;;;;;;5.90;4.10;;;;;;;6.31;58.96;93118.28;1856450;75;21493;-82
2021/04/26 07:21:13;;;;;;;4.30;3.62;;;;;;;6.31;60.45;93110.17;1841676;77;21039;-80
2021/04/26 07:23:41;;;;;;;5.80;3.70;;;;;;;6.41;59.77;93116.23;1825380;78;21063;-82
2021/04/26 07:26:09;;;;;;;7.00;3.67;;;;;;;6.47;59.82;93113.39;1838360;74;21168;-82
2021/04/26 07:28:37;;;;;;;3.67;3.25;;;;;;;6.50;59.94;93117.25;1909352;75;21414;-84
2021/04/26 07:31:05;;;;;;;4.53;3.70;;;;;;;6.49;56.16;93116.48;1873147;76;21133;-80
2021/04/26 07:33:33;;;;;;;4.53;3.20;;;;;;;6.24;55.72;93123.08;1903534;75;21490;-82
2021/04/26 07:36:00;;;;;;;5.05;3.00;;;;;;;5.99;57.40;93120.17;1887548;75;21180;-83
2021/04/26 07:38:28;;;;;;;4.35;3.22;;;;;;;5.81;55.02;93113.80;1886289;75;21524;-80
2021/04/26 07:40:55;;;;;;;8.53;4.42;;;;;;;5.61;54.34;93124.03;1900358;75;21352;-83
2021/04/26 07:43:22;;;;;;;4.33;3.02;;;;;;;5.53;56.62;93117.80;1837488;78;21161;-82
2021/04/26 07:45:50;;;;;;;4.45;2.98;;;;;;;5.62;56.09;93126.92;1839595;77;21187;-78
2021/04/26 07:48:18;;;;;;;2.52;2.33;;;;;;;5.71;57.61;93117.17;1837570;77;21153;-82
2021/04/26 07:50:46;;;;;;;6.15;3.15;;;;;;;5.86;57.79;93117.50;1843900;77;21188;-78
2021/04/26 07:53:14;;;;;;;3.30;2.85;;;;;;;6.12;54.61;93120.64;1851654;77;21287;-78
2021/04/26 07:55:43;;;;;;;6.53;2.80;;;;;;;6.11;54.62;93125.08;1835646;78;21161;-79
2021/04/26 07:58:10;;;;;;;3.98;2.35;;;;;;;6.01;53.04;93124.60;1866186;76;21573;-79
2021/04/26 08:00:37;;;;;;;5.22;3.25;;;;;;;5.94;55.47;93124.57;1841354;76;21219;-80
2021/04/26 08:03:05;;;;;;;5.53;3.50;;;;;;;5.93;55.67;93119.53;1876139;75;21137;-83
2021/04/26 08:05:32;;;;;;;6.60;3.98;;;;;;;5.94;57.25;93125.92;1891001;75;21343;-80
2021/04/26 08:08:00;;;;;;;5.20;2.90;;;;;;;5.96;55.91;93133.63;1850398;77;21129;-79
2021/04/26 08:10:28;;;;;;;4.80;3.20;;;;;;;5.85;55.99;93133.50;1836887;77;21620;-81
2021/04/26 08:12:59;;;;;;;4.87;2.90;;;;;;;5.69;54.80;93130.27;1902240;75;21101;-83
2021/04/26 08:15:27;;;;;;;4.08;2.87;;;;;;;5.46;56.14;93133.13;1860390;75;21220;-84
2021/04/26 08:17:55;;;;;;;4.30;2.75;;;;;;;5.21;54.99;93130.92;1838200;78;21356;-81
2021/04/26 08:20:22;;;;;;;4.05;3.08;;;;;;;4.90;53.48;93135.36;1839953;77;21660;-80
2021/04/26 08:22:51;;;;;;;4.00;2.83;;;;;;;4.63;54.72;93134.83;1841914;77;21750;-79
2021/04/26 08:25:20;;;;;;;3.08;2.60;;;;;;;4.49;55.42;93134.63;1907039;75;21176;-82
2021/04/26 08:27:47;;;;;;;3.05;2.35;;;;;;;4.52;57.74;93135.82;1879036;75;21169;-83
2021/04/26 08:30:15;;;;;;;5.97;2.40;;;;;;;4.63;58.27;93134.83;1871254;76;21396;-79
2021/04/26 08:32:43;;;;;;;2.90;1.95;;;;;;;4.81;58.10;93141.00;1884379;75;21172;-80
2021/04/26 08:35:11;;;;;;;2.62;2.40;;;;;;;5.10;57.89;93138.88;1902671;75;21137;-82
2021/04/26 08:37:39;;;;;;;3.02;2.33;;;;;;;5.44;56.26;93138.10;1851292;77;21164;-80
2021/04/26 08:40:07;;;;;;;3.55;2.45;;;;;;;5.72;54.75;93144.38;1837525;77;21686;-83
2021/04/26 08:42:35;;;;;;;3.35;2.30;;;;;;;5.94;54.42;93144.81;1821883;77;21355;-81
2021/04/26 08:45:04;;;;;;;3.65;2.87;;;;;;;6.08;53.49;93148.95;1840760;76;21074;-84
2021/04/26 08:47:32;;;;;;;4.12;2.30;;;;;;;6.12;52.18;93152.27;1872009;75;21497;-82
2021/04/26 08:50:02;;;;;;;3.62;2.22;;;;;;;6.05;51.02;93143.53;1867854;76;21587;-81
2021/04/26 08:52:30;;;;;;;2.92;2.27;;;;;;;6.10;52.20;93144.55;1832229;78;21066;-83
2021/04/26 08:54:58;;;;;;;2.17;1.95;;;;;;;6.12;52.45;93146.29;1820925;78;21349;-81
2021/04/26 08:57:25;;;;;;;3.12;2.27;;;;;;;6.04;52.70;93138.70;1866691;75;21169;-82
2021/04/26 08:59:53;;;;;;;4.00;2.10;;;;;;;6.06;53.07;93141.05;1864182;75;21494;-83
2021/04/26 09:02:22;;;;;;;3.33;2.20;;;;;;;6.15;52.78;93138.80;1814321;77;21055;-81
2021/04/26 09:04:55;;;;;;;3.62;2.40;;;;;;;6.40;53.63;93145.75;1871332;75;21607;-81
2021/04/26 09:07:22;;;;;;;4.65;2.95;;;;;;;6.70;53.26;93154.26;1828581;75;21225;-82
2021/04/26 09:09:53;;;;;;;3.45;2.45;;;;;;;6.92;55.55;93153.23;1805473;78;21072;-83
2021/04/26 09:12:30;;;;;;;4.92;2.47;;;;;;;6.92;52.98;93150.53;1825542;76;21545;-81
2021/04/26 09:15:05;;;;;;;3.40;3.08;;;;;;;6.73;54.87;93152.93;1851923;77;21100;-82
2021/04/26 09:17:40;;;;;;;2.95;2.72;;;;;;;6.51;55.45;93148.53;1841196;74;21196;-79
2021/04/26 09:20:11;;;;;;;2.65;2.25;;;;;;;6.27;54.43;93149.30;1915843;74;21348;-81
2021/04/26 09:22:43;;;;;;;2.62;2.20;;;;;;;6.04;56.10;93152.78;1844523;77;21074;-82
2021/04/26 09:25:38;;;;;;;3.95;2.67;;;;;;;5.83;56.27;93151.42;1903631;74;21121;-81
2021/04/26 09:28:15;;;;;;;4.67;2.90;;;;;;;5.71;57.28;93152.25;1887159;74;21619;-86
2021/04/26 09:30:50;;;;;;;4.45;2.80;;;;;;;5.64;58.69;93154.30;1879155;76;21001;-80
2021/04/26 09:33:30;;;;;;;;;;;;;;;5.58;59.34;93155.21;1881138;76;21623;-86
2021/04/26 09:36:18;;;;;;;4.53;2.80;;;;;;;5.50;59.31;93153.59;1889600;74;20225;-82
2021/04/26 09:38:54;;;;;;;3.15;2.52;;;;;;;5.37;57.54;93160.36;1908931;74;21065;-83
2021/04/26 09:41:32;;;;;;;3.37;2.75;;;;;;;5.25;59.78;93158.69;1878819;76;21156;-83
2021/04/26 09:44:07;;;;;;;4.50;2.92;;;;;;;5.22;59.27;93158.65;1878953;76;21595;-84
2021/04/26 09:46:42;;;;;;;4.85;2.98;;;;;;;5.20;59.00;93157.68;1878813;76;21318;-89
2021/04/26 09:49:16;;;;;;;2.35;2.10;;;;;;;5.25;58.74;93153.88;1852654;76;21121;-80
2021/04/26 09:51:49;;;;;;;4.58;2.52;;;;;;;5.23;58.45;93151.56;1841192;77;21482;-85
2021/04/26 09:54:17;;;;;;;3.22;2.47;;;;;;;5.20;56.23;93149.59;1871028;74;21544;-84
2021/04/26 09:56:45;;;;;;;2.17;1.98;;;;;;;5.15;55.72;93153.17;1906842;74;21667;-82
2021/04/26 09:59:15;;;;;;;3.22;2.22;;;;;;;5.06;54.18;93148.06;1852023;77;21325;-85
2021/04/26 10:01:44;;;;;;;2.45;1.95;;;;;;;4.95;55.04;93149.85;1821828;77;21283;-84
2021/04/26 10:04:12;;;;;;;2.80;2.45;;;;;;;4.96;55.17;93146.78;1844486;77;21149;-85
2021/04/26 10:06:40;;;;;;;2.95;2.62;;;;;;;4.97;55.99;93147.58;1844161;77;21172;-81
2021/04/26 10:09:09;;;;;;;3.30;2.30;;;;;;;4.97;55.45;93150.27;1844308;77;21157;-82
2021/04/26 10:11:37;;;;;;;4.45;2.52;;;;;;;4.92;58.03;93149.23;1844093;77;21186;-80
2021/04/26 10:14:14;;;;;;;3.35;2.52;;;;;;;4.92;57.89;93146.53;1845284;77;21603;-79
2021/04/26 10:17:11;;;;;;;3.05;2.60;;;;;;;4.92;57.94;93151.34;1845012;77;21027;-84
2021/04/26 10:19:53;;;;;;;2.95;2.20;;;;;;;4.93;56.86;93146.73;1846601;77;21242;-83
2021/04/26 10:22:37;;;;;;;3.87;2.60;;;;;;;5.03;58.17;93135.32;1897521;74;21157;-82
2021/04/26 10:25:07;;;;;;;3.30;2.72;;;;;;;5.22;59.24;93135.73;1872528;74;22231;-82
2021/04/26 10:27:39;;;;;;;5.30;2.60;;;;;;;5.43;59.22;93136.56;1846198;77;21176;-83
2021/04/26 10:30:13;;;;;;;3.90;2.55;;;;;;;5.57;59.27;93129.39;1858336;74;21168;-83
2021/04/26 10:32:59;;;;;;;4.20;2.43;;;;;;;5.64;54.12;93127.89;1913463;74;21132;-86
2021/04/26 10:35:35;;;;;;;5.85;2.65;;;;;;;5.52;53.04;93120.27;1879024;76;21128;-79
2021/04/26 10:38:03;;;;;;;3.33;2.15;;;;;;;5.36;52.46;93118.37;1915329;74;21413;-83
2021/04/26 10:40:31;;;;;;;2.45;2.12;;;;;;;5.31;52.26;93114.09;1834985;76;21070;-82
2021/04/26 10:42:59;;;;;;;2.83;2.33;;;;;;;5.40;54.36;93116.48;1831137;74;21176;-82
2021/04/26 10:45:28;;;;;;;2.83;2.20;;;;;;;5.52;56.56;93110.05;1894390;74;21270;-80
2021/04/26 10:48:06;;;;;;;2.77;2.58;;;;;;;5.69;57.30;93098.67;1858165;74;21149;-86
2021/04/26 10:50:39;;;;;;;2.70;1.92;;;;;;;5.81;55.32;93099.73;1916615;74;21472;-83
2021/04/26 10:53:09;;;;;;;4.97;2.47;;;;;;;5.90;56.46;93095.37;1842624;77;21055;-80
2021/04/26 10:55:46;;;;;;;2.10;1.90;;;;;;;5.96;54.36;93087.17;1834566;77;21178;-85
2021/04/26 10:58:25;;;;;;;5.20;2.37;;;;;;;6.00;54.17;93086.63;1888553;74;21126;-86
2021/04/26 11:00:53;;;;;;;4.42;2.70;;;;;;;6.03;53.97;93080.48;1898584;74;21145;-78
2021/04/26 11:03:31;;;;;;;4.60;2.45;;;;;;;6.02;54.00;93084.92;1888482;74;22112;-85
2021/04/26 11:06:10;;;;;;;2.75;2.22;;;;;;;5.95;52.25;93068.66;1910441;74;21552;-85
2021/04/26 11:11:25;;;;;;;2.60;2.35;;;;;;;5.57;51.30;93078.72;1820710;78;21052;-85
2021/04/26 11:13:58;;;;;;;4.72;2.98;;;;;;;5.41;51.71;93080.86;1857943;76;21468;-81
2021/04/26 11:16:50;;;;;;;4.45;2.98;;;;;;;5.29;54.39;93079.20;1887918;74;21524;-82
2021/04/26 11:19:17;;;;;;;3.75;2.52;;;;;;;5.25;52.72;93082.44;1878980;76;21105;-86
2021/04/26 11:21:50;;;;;;;4.70;3.52;;;;;;;5.21;53.76;93080.28;1878974;76;21040;-83
2021/04/26 11:24:28;;;;;;;5.20;3.10;;;;;;;5.16;50.56;93082.73;1878305;76;21082;-84
2021/04/26 11:27:19;;;;;;;6.17;4.15;;;;;;;5.17;53.53;93083.51;1878919;76;21431;-86
2021/04/26 11:29:54;;;;;;;7.65;3.62;;;;;;;5.28;53.02;93083.05;1878841;76;21564;-81
2021/04/26 11:32:26;;;;;;;4.47;3.08;;;;;;;5.27;51.08;93086.33;1915086;74;21129;-83
2021/04/26 11:35:00;;;;;;;5.15;3.42;;;;;;;5.21;50.24;93085.09;1885114;74;21030;-84
2021/04/26 11:37:29;;;;;;;3.20;2.75;;;;;;;5.10;51.36;93080.16;1878450;76;21189;-84
2021/04/26 11:39:58;;;;;;;5.12;2.72;;;;;;;5.08;53.20;93081.89;1878972;75;21094;-82
2021/04/26 11:42:30;;;;;;;3.70;2.47;;;;;;;5.16;52.14;93080.62;1878993;76;21310;-83
2021/04/26 11:45:03;;;;;;;3.55;2.52;;;;;;;5.29;53.58;93084.02;1879171;75;21125;-80
2021/04/26 11:47:30;;;;;;;3.00;2.27;;;;;;;5.35;52.49;93085.25;1916858;74;21501;-82
2021/04/26 11:49:59;;;;;;;4.78;2.67;;;;;;;5.43;55.27;93084.75;1833258;76;21572;-82
2021/04/26 11:52:28;;;;;;;2.77;2.55;;;;;;;5.59;56.37;93083.16;1839199;77;21639;-86
2021/04/26 11:55:12;;;;;;;3.50;2.10;;;;;;;5.70;55.44;93081.91;1834025;78;22217;-84
2021/04/26 11:57:57;;;;;;;2.50;2.30;;;;;;;5.73;53.78;93074.42;1829931;77;21581;-85
2021/04/26 12:00:29;;;;;;;4.25;1.77;;;;;;;5.80;51.83;93073.14;1827747;78;21692;-80
2021/04/26 12:03:05;;;;;;;3.00;2.37;;;;;;;5.85;53.16;93070.86;1832927;78;21557;-83